Lawrence, Nebraska
Current Conditions -  °F | °C
As of 4:53 AM on Thursday 27 Nov 2014 (Local Time) from KHSI Reporting Station
Overcast Overcast  
Wind Chill: 13°   Ceiling: 9000
Heat Index: 20°   Visibility: 10mi
Dew Point: 14°   Wind: 5mph
Humidity: 78%   Direction: 130°SE
Pressure: 30.41"   Gusts: NA
Location:  40.29°N, 98.26°W
Report Text: KHSI 271053Z AUTO 13004KT 10SM OVC090 M07/M10 A3041 RMK AO2 SLP326 T10671100
Loading
Personal Weather Stations






























Interactive Weather Map New forecast layout! Learn more

10-Day Weather Forecast

Advertisements
Track Severe Weather on mobile